21kousinmaru — JD2168 — position and weather

sailwx.info

Track history (hours):
 
Tides and Currents Weather Stations Pressure Air Temp Water Temp Dewpoint Dewpoint Depression Visibility Wind Speed Wind Dir Waves Ship Positions

21kousinmaru

Last reported at 2015-May-30 04:33 UTC. Time now 2015-May-30 18:32 UTC.
Position N 35°05' E 139°40'.

Length 68 m; draft 4.2 m.

MMSI: 431501835.

Date/timePositionNaut miles runAvg speedWind from/ knotsBaromVisibWave heightAir tempDewpointWater temp
2015-May-30 04:33N 35°05' E 139°40'1211.7
2015-May-30 03:33N 35°16' E 139°46'1010.4
2015-May-30 02:33N 35°27' E 139°47'1212.3
2015-May-30 01:33N 35°31' E 140°01'2 1.2
2015-May-30 00:17N 35°31' E 140°02'0 0.0
2015-May-29 23:29N 35°31' E 140°02'0 0.0
2015-May-29 22:29N 35°31' E 140°02'0 0.5
2015-May-29 21:33N 35°31' E 140°02'6 5.8
2015-May-29 20:34N 35°32' E 139°55'3 2.8
2015-May-29 19:31N 35°29' E 139°54'0 0.0
2015-May-29 18:25N 35°29' E 139°54'0 0.0
2015-May-29 17:31N 35°29' E 139°54'0 0.0
2015-May-29 16:31N 35°29' E 139°54'0 0.0
2015-May-29 15:25N 35°29' E 139°54'0 0.0
2015-May-29 14:31N 35°29' E 139°54'0 0.0
2015-May-29 13:31N 35°29' E 139°54'0 0.0
2015-May-29 12:33N 35°29' E 139°54'9 9.1
2015-May-29 11:33N 35°23' E 139°46'1010.4
2015-May-29 10:33N 35°13' E 139°47'1110.8
2015-May-29 09:34N 35°03' E 139°41'239 9.5
2015-May-28 08:25N 33°49' E 135°06'1511.3
2015-May-28 07:06N 34°03' E 134°60'912.2
2015-May-28 06:20N 34°12' E 134°59'1011.9
2015-May-28 05:31N 34°22' E 135°00'1212.4
2015-May-28 04:33N 34°29' E 135°12'1211.6
2015-May-28 03:34N 34°33' E 135°25'1 0.9
2015-May-28 02:33N 34°32' E 135°25'0 0.0
2015-May-28 01:33N 34°32' E 135°25'0 0.0
2015-May-28 00:33N 34°32' E 135°25'0 0.0
2015-May-27 23:32N 34°32' E 135°25'0 0.0
2015-May-27 22:32N 34°32' E 135°25'4 4.0
2015-May-27 21:33N 34°33' E 135°21'2 1.6
2015-May-27 20:33N 34°32' E 135°19'0 0.0
2015-May-27 19:34N 34°32' E 135°19'0 0.0
2015-May-27 18:26N 34°32' E 135°19'0 0.0
2015-May-27 17:33N 34°32' E 135°19'0 0.0
2015-May-27 16:30N 34°32' E 135°19'0 0.0
2015-May-27 15:33N 34°32' E 135°19'0 0.0
2015-May-27 14:34N 34°32' E 135°19'0 0.0
2015-May-27 13:33N 34°32' E 135°19'0 0.0
2015-May-27 12:33N 34°32' E 135°19'0 0.0
2015-May-27 11:30N 34°32' E 135°19'0 0.0
2015-May-27 10:33N 34°32' E 135°19'0 0.1
2015-May-27 09:33N 34°32' E 135°19'0 0.0
2015-May-27 08:33N 34°32' E 135°19'0 0.0
2015-May-27 07:33N 34°32' E 135°19'3 3.0
2015-May-27 06:33N 34°30' E 135°16'1312.7
2015-May-27 05:32N 34°21' E 135°04'1311.3
2015-May-27 04:25N 34°09' E 135°00'24410.1
2015-May-26 04:21N 35°14' E 139°46'1012.4
2015-May-26 03:33N 35°24' E 139°42'1312.6
2015-May-26 02:33N 35°31' E 139°55'6 4.0
2015-May-26 01:04N 35°31' E 140°02'0 0.0
2015-May-26 00:16N 35°31' E 140°02'0 0.0
2015-May-25 23:28N 35°31' E 140°02'0 0.0
2015-May-25 22:22N 35°31' E 140°02'2 2.0
2015-May-25 21:33N 35°31' E 140°01'5 4.1
2015-May-25 20:26N 35°32' E 139°55'0 0.0
2015-May-25 19:20N 35°32' E 139°55'0 0.0
2015-May-25 18:29N 35°32' E 139°55'0 0.0
2015-May-25 17:32N 35°32' E 139°55'0 0.0
2015-May-25 16:26N 35°32' E 139°55'0 0.0
2015-May-25 15:26N 35°32' E 139°55'0 0.0
2015-May-25 14:32N 35°32' E 139°55'0 0.0
2015-May-25 13:29N 35°32' E 139°55'0 0.0
2015-May-25 12:29N 35°32' E 139°55'0 0.0
2015-May-25 11:32N 35°32' E 139°55'0 0.0
2015-May-25 10:32N 35°32' E 139°55'0 0.0
2015-May-25 09:29N 35°32' E 139°55'5 5.9
2015-May-25 08:33N 35°30' E 139°49'4 3.5
2015-May-25 07:31N 35°31' E 139°45'0 0.0
2015-May-25 06:25N 35°31' E 139°45'0 0.0
2015-May-25 05:31N 35°31' E 139°45'2 1.6
2015-May-25 04:33N 35°30' E 139°44'7 6.7
2015-May-25 03:34N 35°25' E 139°39'0 0.0
2015-May-25 02:31N 35°25' E 139°39'0 0.0
2015-May-25 01:31N 35°25' E 139°39'0 0.0
2015-May-25 00:31N 35°25' E 139°39'0 0.0
2015-May-24 23:31N 35°25' E 139°39'2 2.6
2015-May-24 22:34N 35°23' E 139°40'0 0.2
2015-May-24 21:33N 35°22' E 139°40'0 0.0
2015-May-24 20:33N 35°22' E 139°40'0 0.0
2015-May-24 19:33N 35°22' E 139°40'0 0.0
2015-May-24 18:33N 35°22' E 139°40'0 0.0
2015-May-24 17:33N 35°22' E 139°40'0 0.0
2015-May-24 16:33N 35°22' E 139°40'0 0.0
2015-May-24 15:30N 35°22' E 139°40'0 0.1
2015-May-24 14:30N 35°22' E 139°40'0 0.0
2015-May-24 13:33N 35°22' E 139°40'0 0.0
2015-May-24 12:33N 35°22' E 139°40'0 0.0
2015-May-24 11:33N 35°22' E 139°40'0 0.1
2015-May-24 10:33N 35°22' E 139°40'9 8.5
2015-May-24 09:32N 35°16' E 139°47'1312.0
2015-May-24 08:29N 35°04' E 139°42'231 4.7
2015-May-22 07:05N 34°37' E 135°02'510.0
2015-May-22 06:33N 34°35' E 135°08'1212.0
2015-May-22 05:33N 34°33' E 135°22'3 1.3
2015-May-22 03:29N 34°32' E 135°25'0 0.0
2015-May-21 23:04N 34°32' E 135°25'2 3.9
2015-May-21 22:28N 34°33' E 135°23'4 4.0
2015-May-21 21:33N 34°32' E 135°18'0 0.0
2015-May-21 20:31N 34°32' E 135°18'0 0.0
2015-May-21 19:29N 34°32' E 135°18'0 0.0
2015-May-21 18:33N 34°32' E 135°18'0 0.0
2015-May-21 17:33N 34°32' E 135°18'0 0.0
2015-May-21 16:32N 34°32' E 135°18'0 0.0
2015-May-21 15:33N 34°32' E 135°18'0 0.0
2015-May-21 14:33N 34°32' E 135°18'0 0.0
2015-May-21 13:33N 34°32' E 135°18'0 0.1
2015-May-21 12:29N 34°32' E 135°18'0 0.0
2015-May-21 11:33N 34°32' E 135°18'8 7.8
2015-May-21 10:33N 34°27' E 135°11'1612.2
2015-May-21 09:15N 34°14' E 134°59'  
Track history (hours):
 
Tides and Currents Weather Stations Pressure Air Temp Water Temp Dewpoint Dewpoint Depression Visibility Wind Speed Wind Dir Waves Ship Positions

21kousinmaru

Last reported at 2015-May-30 04:33 UTC. Time now 2015-May-30 18:32 UTC.
Position N 35°05' E 139°40'.

Length 68 m; draft 4.2 m.

MMSI: 431501835.

Date/timePositionNaut miles runAvg speedWind from/ knotsBaromVisibWave heightAir tempDewpointWater temp
2015-May-30 04:33N 35°05' E 139°40'1211.7
2015-May-30 03:33N 35°16' E 139°46'1010.4
2015-May-30 02:33N 35°27' E 139°47'1212.3
2015-May-30 01:33N 35°31' E 140°01'2 1.2
2015-May-30 00:17N 35°31' E 140°02'0 0.0
2015-May-29 23:29N 35°31' E 140°02'0 0.0
2015-May-29 22:29N 35°31' E 140°02'0 0.5
2015-May-29 21:33N 35°31' E 140°02'6 5.8
2015-May-29 20:34N 35°32' E 139°55'3 2.8
2015-May-29 19:31N 35°29' E 139°54'0 0.0
2015-May-29 18:25N 35°29' E 139°54'0 0.0
2015-May-29 17:31N 35°29' E 139°54'0 0.0
2015-May-29 16:31N 35°29' E 139°54'0 0.0
2015-May-29 15:25N 35°29' E 139°54'0 0.0
2015-May-29 14:31N 35°29' E 139°54'0 0.0
2015-May-29 13:31N 35°29' E 139°54'0 0.0
2015-May-29 12:33N 35°29' E 139°54'9 9.1
2015-May-29 11:33N 35°23' E 139°46'1010.4
2015-May-29 10:33N 35°13' E 139°47'1110.8
2015-May-29 09:34N 35°03' E 139°41'239 9.5
2015-May-28 08:25N 33°49' E 135°06'1511.3
2015-May-28 07:06N 34°03' E 134°60'912.2
2015-May-28 06:20N 34°12' E 134°59'1011.9
2015-May-28 05:31N 34°22' E 135°00'1212.4
2015-May-28 04:33N 34°29' E 135°12'1211.6
2015-May-28 03:34N 34°33' E 135°25'1 0.9
2015-May-28 02:33N 34°32' E 135°25'0 0.0
2015-May-28 01:33N 34°32' E 135°25'0 0.0
2015-May-28 00:33N 34°32' E 135°25'0 0.0
2015-May-27 23:32N 34°32' E 135°25'0 0.0
2015-May-27 22:32N 34°32' E 135°25'4 4.0
2015-May-27 21:33N 34°33' E 135°21'2 1.6
2015-May-27 20:33N 34°32' E 135°19'0 0.0
2015-May-27 19:34N 34°32' E 135°19'0 0.0
2015-May-27 18:26N 34°32' E 135°19'0 0.0
2015-May-27 17:33N 34°32' E 135°19'0 0.0
2015-May-27 16:30N 34°32' E 135°19'0 0.0
2015-May-27 15:33N 34°32' E 135°19'0 0.0
2015-May-27 14:34N 34°32' E 135°19'0 0.0
2015-May-27 13:33N 34°32' E 135°19'0 0.0
2015-May-27 12:33N 34°32' E 135°19'0 0.0
2015-May-27 11:30N 34°32' E 135°19'0 0.0
2015-May-27 10:33N 34°32' E 135°19'0 0.1
2015-May-27 09:33N 34°32' E 135°19'0 0.0
2015-May-27 08:33N 34°32' E 135°19'0 0.0
2015-May-27 07:33N 34°32' E 135°19'3 3.0
2015-May-27 06:33N 34°30' E 135°16'1312.7
2015-May-27 05:32N 34°21' E 135°04'1311.3
2015-May-27 04:25N 34°09' E 135°00'24410.1
2015-May-26 04:21N 35°14' E 139°46'1012.4
2015-May-26 03:33N 35°24' E 139°42'1312.6
2015-May-26 02:33N 35°31' E 139°55'6 4.0
2015-May-26 01:04N 35°31' E 140°02'0 0.0
2015-May-26 00:16N 35°31' E 140°02'0 0.0
2015-May-25 23:28N 35°31' E 140°02'0 0.0
2015-May-25 22:22N 35°31' E 140°02'2 2.0
2015-May-25 21:33N 35°31' E 140°01'5 4.1
2015-May-25 20:26N 35°32' E 139°55'0 0.0
2015-May-25 19:20N 35°32' E 139°55'0 0.0
2015-May-25 18:29N 35°32' E 139°55'0 0.0
2015-May-25 17:32N 35°32' E 139°55'0 0.0
2015-May-25 16:26N 35°32' E 139°55'0 0.0
2015-May-25 15:26N 35°32' E 139°55'0 0.0
2015-May-25 14:32N 35°32' E 139°55'0 0.0
2015-May-25 13:29N 35°32' E 139°55'0 0.0
2015-May-25 12:29N 35°32' E 139°55'0 0.0
2015-May-25 11:32N 35°32' E 139°55'0 0.0
2015-May-25 10:32N 35°32' E 139°55'0 0.0
2015-May-25 09:29N 35°32' E 139°55'5 5.9
2015-May-25 08:33N 35°30' E 139°49'4 3.5
2015-May-25 07:31N 35°31' E 139°45'0 0.0
2015-May-25 06:25N 35°31' E 139°45'0 0.0
2015-May-25 05:31N 35°31' E 139°45'2 1.6
2015-May-25 04:33N 35°30' E 139°44'7 6.7
2015-May-25 03:34N 35°25' E 139°39'0 0.0
2015-May-25 02:31N 35°25' E 139°39'0 0.0
2015-May-25 01:31N 35°25' E 139°39'0 0.0
2015-May-25 00:31N 35°25' E 139°39'0 0.0
2015-May-24 23:31N 35°25' E 139°39'2 2.6
2015-May-24 22:34N 35°23' E 139°40'0 0.2
2015-May-24 21:33N 35°22' E 139°40'0 0.0
2015-May-24 20:33N 35°22' E 139°40'0 0.0
2015-May-24 19:33N 35°22' E 139°40'0 0.0
2015-May-24 18:33N 35°22' E 139°40'0 0.0
2015-May-24 17:33N 35°22' E 139°40'0 0.0
2015-May-24 16:33N 35°22' E 139°40'0 0.0
2015-May-24 15:30N 35°22' E 139°40'0 0.1
2015-May-24 14:30N 35°22' E 139°40'0 0.0
2015-May-24 13:33N 35°22' E 139°40'0 0.0
2015-May-24 12:33N 35°22' E 139°40'0 0.0
2015-May-24 11:33N 35°22' E 139°40'0 0.1
2015-May-24 10:33N 35°22' E 139°40'9 8.5
2015-May-24 09:32N 35°16' E 139°47'1312.0
2015-May-24 08:29N 35°04' E 139°42'231 4.7
2015-May-22 07:05N 34°37' E 135°02'510.0
2015-May-22 06:33N 34°35' E 135°08'1212.0
2015-May-22 05:33N 34°33' E 135°22'3 1.3
2015-May-22 03:29N 34°32' E 135°25'0 0.0
2015-May-21 23:04N 34°32' E 135°25'2 3.9
2015-May-21 22:28N 34°33' E 135°23'4 4.0
2015-May-21 21:33N 34°32' E 135°18'0 0.0
2015-May-21 20:31N 34°32' E 135°18'0 0.0
2015-May-21 19:29N 34°32' E 135°18'0 0.0
2015-May-21 18:33N 34°32' E 135°18'0 0.0
2015-May-21 17:33N 34°32' E 135°18'0 0.0
2015-May-21 16:32N 34°32' E 135°18'0 0.0
2015-May-21 15:33N 34°32' E 135°18'0 0.0
2015-May-21 14:33N 34°32' E 135°18'0 0.0
2015-May-21 13:33N 34°32' E 135°18'0 0.1
2015-May-21 12:29N 34°32' E 135°18'0 0.0
2015-May-21 11:33N 34°32' E 135°18'8 7.8
2015-May-21 10:33N 34°27' E 135°11'1612.2
2015-May-21 09:15N 34°14' E 134°59'  

Dump ship's entire track history